Time;durP1;ratioP1;P1;durP2;ratioP2;P2;SDS_P1;SDS_P2;PMS_P1;PMS_P2;Temp;Humidity;BMP_temperature;BMP_pressure;BME280_temperature;BME280_humidity;BME280_pressure;Samples;Min_cycle;Max_cycle;Signal;HPM_P1;HPM_P2
2022/09/11 00:02:37;;;;;;;0.40;0.40;;;14.60;99.90;;;;;;5032616;28;20230;-68
2022/09/11 00:05:26;;;;;;;0.63;0.63;;;14.60;99.90;;;;;;5033156;28;20572;-69
2022/09/11 00:08:16;;;;;;;0.80;0.80;;;14.50;99.90;;;;;;5033350;28;20629;-69
2022/09/11 00:11:09;;;;;;;0.40;0.40;;;14.50;99.90;;;;;;5032596;28;20976;-68
2022/09/11 00:13:58;;;;;;;0.40;0.40;;;14.40;99.90;;;;;;5032371;28;20451;-72
2022/09/11 00:16:47;;;;;;;2.10;2.00;;;14.40;99.90;;;;;;5032651;28;20436;-70
2022/09/11 00:19:35;;;;;;;0.40;0.40;;;14.30;99.90;;;;;;5032015;28;20448;-72
2022/09/11 00:22:23;;;;;;;0.40;0.40;;;14.20;99.90;;;;;;5032242;28;20777;-70
2022/09/11 00:25:11;;;;;;;0.40;0.40;;;14.10;99.90;;;;;;5032302;28;20421;-69
2022/09/11 00:28:01;;;;;;;0.40;0.40;;;14.20;99.90;;;;;;5032554;28;20432;-68
2022/09/11 00:30:58;;;;;;;0.50;0.50;;;14.10;99.90;;;;;;5031998;28;20428;-67
2022/09/11 00:33:46;;;;;;;0.40;0.40;;;14.20;99.90;;;;;;5033299;28;20957;-67
2022/09/11 00:36:38;;;;;;;0.60;0.60;;;14.10;99.90;;;;;;5032614;28;20447;-66
2022/09/11 00:39:26;;;;;;;0.50;0.50;;;14.00;99.90;;;;;;5033199;28;20436;-66
2022/09/11 00:42:14;;;;;;;0.40;0.40;;;13.90;99.90;;;;;;5033967;28;20421;-66
2022/09/11 00:45:07;;;;;;;0.40;0.40;;;13.90;99.90;;;;;;5033912;28;20425;-66
2022/09/11 00:47:58;;;;;;;0.40;0.40;;;13.80;99.90;;;;;;5034042;28;20429;-66
2022/09/11 00:50:48;;;;;;;0.40;0.40;;;13.80;99.90;;;;;;5032593;28;20479;-65
2022/09/11 00:53:37;;;;;;;0.40;0.40;;;13.70;99.90;;;;;;5032791;28;20551;-67
2022/09/11 00:56:30;;;;;;;0.50;0.50;;;13.70;99.90;;;;;;5033208;28;20830;-66
2022/09/11 00:59:24;;;;;;;0.50;0.50;;;13.70;99.90;;;;;;5032910;28;20523;-67
2022/09/11 01:02:17;;;;;;;0.40;0.40;;;13.70;99.90;;;;;;5034152;28;20779;-65
2022/09/11 01:05:07;;;;;;;0.40;0.40;;;13.50;99.90;;;;;;5034630;28;20511;-66
2022/09/11 01:07:56;;;;;;;0.40;0.40;;;13.50;99.90;;;;;;5033719;28;20431;-67
2022/09/11 01:10:56;;;;;;;0.40;0.40;;;13.40;99.90;;;;;;5032553;28;20833;-65
2022/09/11 01:13:48;;;;;;;0.80;0.80;;;13.50;99.90;;;;;;5032696;28;20863;-66
2022/09/11 01:16:42;;;;;;;0.50;0.50;;;13.50;99.90;;;;;;5032290;28;20421;-65
2022/09/11 01:19:53;;;;;;;0.50;0.50;;;13.50;99.90;;;;;;5032663;28;20554;-65
2022/09/11 01:23:02;;;;;;;0.40;0.40;;;13.50;99.90;;;;;;5041555;28;20849;-66
2022/09/11 01:26:06;;;;;;;0.40;0.40;;;13.50;99.90;;;;;;5033709;28;20765;-66
2022/09/11 01:29:00;;;;;;;0.50;0.50;;;13.40;99.90;;;;;;5033303;28;20475;-66
2022/09/11 01:31:54;;;;;;;0.40;0.40;;;13.50;99.90;;;;;;5032303;28;20425;-66
2022/09/11 01:34:49;;;;;;;0.40;0.40;;;13.40;99.90;;;;;;5033934;28;20428;-66
2022/09/11 01:37:40;;;;;;;0.40;0.40;;;13.40;99.90;;;;;;5033404;28;20989;-66
2022/09/11 01:40:35;;;;;;;0.40;0.40;;;13.40;99.90;;;;;;5032493;28;20512;-67
2022/09/11 01:43:26;;;;;;;0.40;0.40;;;13.40;99.90;;;;;;5032616;28;20437;-66
2022/09/11 01:46:21;;;;;;;0.40;0.40;;;13.40;99.90;;;;;;5033895;28;20425;-66
2022/09/11 01:49:15;;;;;;;1.87;1.77;;;13.40;99.90;;;;;;5033097;28;20429;-66
2022/09/11 01:52:08;;;;;;;0.50;0.50;;;13.40;99.90;;;;;;5033623;28;20431;-65
2022/09/11 01:55:01;;;;;;;0.40;0.40;;;13.40;99.90;;;;;;5033818;28;20432;-66
2022/09/11 01:57:54;;;;;;;0.47;0.47;;;13.40;99.90;;;;;;5033382;28;20799;-66
2022/09/11 02:00:46;;;;;;;0.80;0.80;;;13.40;99.90;;;;;;5033987;28;20437;-67
2022/09/11 02:03:39;;;;;;;0.40;0.40;;;13.40;99.90;;;;;;5033621;28;20453;-65
2022/09/11 02:06:32;;;;;;;0.40;0.40;;;13.40;99.90;;;;;;5033082;28;20422;-66
2022/09/11 02:09:23;;;;;;;2.30;2.20;;;13.30;99.90;;;;;;5033439;28;20516;-66
2022/09/11 02:12:14;;;;;;;0.57;0.57;;;13.30;99.90;;;;;;5032700;28;20454;-67
2022/09/11 02:15:03;;;;;;;0.40;0.40;;;13.30;99.90;;;;;;5033742;28;20500;-65
2022/09/11 02:18:00;;;;;;;2.60;2.40;;;13.20;99.90;;;;;;5033159;28;20428;-66
2022/09/11 02:20:51;;;;;;;0.40;0.40;;;13.20;99.90;;;;;;5032918;28;20449;-65
2022/09/11 02:23:40;;;;;;;0.50;0.50;;;13.20;99.90;;;;;;5033358;28;20523;-67
2022/09/11 02:26:32;;;;;;;0.40;0.40;;;13.20;99.90;;;;;;5034154;28;20431;-66
2022/09/11 02:29:20;;;;;;;1.27;1.27;;;13.20;99.90;;;;;;5035087;28;20472;-66
2022/09/11 02:32:09;;;;;;;0.40;0.40;;;13.30;99.90;;;;;;5036164;28;20431;-65
2022/09/11 02:34:58;;;;;;;0.40;0.40;;;13.20;99.90;;;;;;5037112;28;20541;-67
2022/09/11 02:37:58;;;;;;;0.40;0.40;;;13.20;99.90;;;;;;5037033;28;20516;-66
2022/09/11 02:40:55;;;;;;;0.40;0.40;;;13.20;99.90;;;;;;5036027;28;21070;-67
2022/09/11 02:43:53;;;;;;;0.40;0.40;;;13.20;99.90;;;;;;5036813;28;20970;-65
2022/09/11 02:46:56;;;;;;;0.40;0.40;;;13.10;99.90;;;;;;5036228;28;20427;-66
2022/09/11 02:49:57;;;;;;;0.40;0.40;;;13.10;99.90;;;;;;5036611;28;20511;-66
2022/09/11 02:52:56;;;;;;;0.40;0.40;;;13.10;99.90;;;;;;5036556;28;20966;-66
2022/09/11 02:55:55;;;;;;;0.40;0.40;;;13.10;99.90;;;;;;5036566;28;20421;-66
2022/09/11 02:58:46;;;;;;;0.40;0.40;;;13.10;99.90;;;;;;5016814;28;20505;-65
2022/09/11 03:01:50;;;;;;;0.40;0.40;;;13.00;99.90;;;;;;5016074;28;21005;-67
2022/09/11 03:04:38;;;;;;;0.40;0.40;;;13.00;99.90;;;;;;5016562;28;20417;-65
2022/09/11 03:07:27;;;;;;;1.67;1.63;;;12.90;99.90;;;;;;5016308;28;20462;-68
2022/09/11 03:10:16;;;;;;;0.40;0.40;;;12.90;99.90;;;;;;5015529;28;20454;-66
2022/09/11 03:13:04;;;;;;;0.40;0.40;;;12.90;99.90;;;;;;5015318;28;20544;-66
2022/09/11 03:15:53;;;;;;;0.40;0.40;;;12.90;99.90;;;;;;5014849;28;20425;-67
2022/09/11 03:18:41;;;;;;;0.40;0.40;;;12.90;99.90;;;;;;5027740;28;20432;-66
2022/09/11 03:21:29;;;;;;;0.47;0.47;;;12.80;99.90;;;;;;5034369;28;20463;-67
2022/09/11 03:24:17;;;;;;;0.50;0.50;;;12.90;99.90;;;;;;5034130;28;20445;-66
2022/09/11 03:27:06;;;;;;;0.50;0.50;;;12.90;99.90;;;;;;5033541;28;20431;-66
2022/09/11 03:29:55;;;;;;;0.40;0.40;;;12.80;99.90;;;;;;5035312;28;20421;-66
2022/09/11 03:32:43;;;;;;;1.00;0.70;;;12.70;99.90;;;;;;5035722;28;20548;-65
2022/09/11 03:35:31;;;;;;;1.63;0.60;;;12.80;99.90;;;;;;5035549;28;20432;-66
2022/09/11 03:38:20;;;;;;;0.60;0.60;;;12.80;99.90;;;;;;5036104;28;20433;-66
2022/09/11 03:41:09;;;;;;;0.80;0.80;;;12.90;99.90;;;;;;5033315;28;20563;-66
2022/09/11 03:43:59;;;;;;;0.40;0.40;;;13.00;99.90;;;;;;5038595;28;20467;-65
2022/09/11 03:46:47;;;;;;;0.40;0.40;;;13.10;99.90;;;;;;5040847;28;20437;-66
2022/09/11 03:49:35;;;;;;;0.50;0.50;;;13.20;99.90;;;;;;5041131;28;20429;-66
2022/09/11 03:52:23;;;;;;;0.60;0.60;;;13.30;99.90;;;;;;5042337;28;21033;-66
2022/09/11 03:55:11;;;;;;;0.40;0.40;;;13.30;99.90;;;;;;5043232;28;20467;-66
2022/09/11 03:58:00;;;;;;;1.17;1.13;;;13.30;99.90;;;;;;5041316;28;20432;-68
2022/09/11 04:00:49;;;;;;;0.70;0.70;;;13.30;99.90;;;;;;5039131;28;20425;-66
2022/09/11 04:03:38;;;;;;;0.40;0.40;;;13.30;99.90;;;;;;5040305;28;20457;-66
2022/09/11 04:06:26;;;;;;;0.40;0.40;;;13.30;99.90;;;;;;5037961;28;20439;-67
2022/09/11 04:09:14;;;;;;;0.40;0.40;;;13.40;99.90;;;;;;5038228;28;20430;-66
2022/09/11 04:12:03;;;;;;;0.40;0.40;;;13.50;99.90;;;;;;5036775;28;20857;-66
2022/09/11 04:14:51;;;;;;;0.97;0.70;;;13.40;99.90;;;;;;5037566;28;20550;-66
2022/09/11 04:17:41;;;;;;;0.70;0.70;;;13.40;99.90;;;;;;5035207;28;20479;-66
2022/09/11 04:20:29;;;;;;;0.60;0.60;;;13.40;99.90;;;;;;5034484;28;20417;-66
2022/09/11 04:23:17;;;;;;;0.50;0.50;;;13.40;99.90;;;;;;5034359;28;20487;-65
2022/09/11 04:26:14;;;;;;;3.60;2.13;;;13.50;99.90;;;;;;5033741;28;20523;-66
2022/09/11 04:29:02;;;;;;;1.00;0.60;;;13.40;99.90;;;;;;5034212;28;20424;-65
2022/09/11 04:31:51;;;;;;;2.20;1.07;;;13.40;99.90;;;;;;5033704;28;20422;-66
2022/09/11 04:34:40;;;;;;;0.40;0.40;;;13.40;99.90;;;;;;5034053;28;20465;-67
2022/09/11 04:37:29;;;;;;;0.87;0.83;;;13.30;99.90;;;;;;5033543;28;20461;-66
2022/09/11 04:40:17;;;;;;;0.40;0.40;;;13.30;99.90;;;;;;5034029;28;20524;-66
2022/09/11 04:43:05;;;;;;;0.40;0.40;;;13.30;99.90;;;;;;5033283;28;20820;-66
2022/09/11 04:45:59;;;;;;;1.37;1.00;;;13.50;99.90;;;;;;5033079;28;20422;-67
2022/09/11 04:48:50;;;;;;;1.40;0.80;;;13.30;99.90;;;;;;5033239;28;20425;-66
2022/09/11 04:51:40;;;;;;;0.40;0.40;;;13.50;99.90;;;;;;5034011;28;20435;-66
2022/09/11 04:54:28;;;;;;;0.40;0.40;;;13.30;99.90;;;;;;5033098;28;20477;-66
2022/09/11 04:57:16;;;;;;;0.90;0.90;;;13.40;99.90;;;;;;5032869;28;20511;-66
2022/09/11 05:00:06;;;;;;;0.40;0.40;;;13.40;99.90;;;;;;5034007;28;20460;-67
2022/09/11 05:02:54;;;;;;;0.50;0.50;;;13.40;99.90;;;;;;5033441;28;20457;-66
2022/09/11 05:05:42;;;;;;;0.40;0.40;;;13.40;99.90;;;;;;5033675;28;20421;-65
2022/09/11 05:08:32;;;;;;;10.03;2.57;;;13.50;99.90;;;;;;5034018;28;21086;-65
2022/09/11 05:11:20;;;;;;;9.73;2.30;;;13.50;99.90;;;;;;5034371;28;20423;-65
2022/09/11 05:14:08;;;;;;;0.40;0.40;;;13.40;99.90;;;;;;5034613;28;21123;-66
2022/09/11 05:16:56;;;;;;;1.27;1.17;;;13.40;99.90;;;;;;5033309;28;20879;-65
2022/09/11 05:19:45;;;;;;;0.40;0.40;;;13.40;99.90;;;;;;5032771;28;21020;-66
2022/09/11 05:22:33;;;;;;;0.40;0.40;;;13.50;99.90;;;;;;5033504;28;20445;-67
2022/09/11 05:25:22;;;;;;;0.50;0.50;;;13.50;99.90;;;;;;5033713;28;20511;-65
2022/09/11 05:28:10;;;;;;;0.90;0.90;;;13.60;99.90;;;;;;5033619;28;20496;-66
2022/09/11 05:31:01;;;;;;;0.40;0.40;;;13.70;99.90;;;;;;5031937;28;20623;-68
2022/09/11 05:33:50;;;;;;;0.40;0.40;;;13.80;99.90;;;;;;5033063;28;20827;-66
2022/09/11 05:36:40;;;;;;;2.00;1.43;;;13.80;99.90;;;;;;5031521;28;20523;-68
2022/09/11 05:39:28;;;;;;;0.50;0.50;;;13.90;99.90;;;;;;5032099;28;20441;-66
2022/09/11 05:42:17;;;;;;;0.40;0.40;;;14.00;99.90;;;;;;5032290;28;20428;-66
2022/09/11 05:45:06;;;;;;;0.50;0.50;;;14.10;99.90;;;;;;5031880;28;20533;-67
2022/09/11 05:47:54;;;;;;;0.40;0.40;;;14.20;99.90;;;;;;5031192;28;20517;-69
2022/09/11 05:50:43;;;;;;;0.40;0.40;;;14.30;99.90;;;;;;5032209;28;20936;-67
2022/09/11 05:53:32;;;;;;;0.40;0.40;;;14.40;99.90;;;;;;5031046;28;20449;-69
2022/09/11 05:56:22;;;;;;;0.50;0.50;;;14.60;99.90;;;;;;5030698;28;20805;-66
2022/09/11 05:59:16;;;;;;;1.03;0.83;;;14.80;99.90;;;;;;5031286;28;20429;-74
2022/09/11 06:02:04;;;;;;;2.53;2.33;;;14.60;99.90;;;;;;5030341;28;20798;-67
2022/09/11 06:04:52;;;;;;;0.40;0.40;;;14.60;99.90;;;;;;5034705;28;20416;-66
2022/09/11 06:07:41;;;;;;;0.60;0.60;;;14.80;99.90;;;;;;5035294;28;20424;-67
2022/09/11 06:10:29;;;;;;;0.50;0.50;;;14.60;99.90;;;;;;5034671;28;20463;-68
2022/09/11 06:13:17;;;;;;;0.57;0.57;;;14.70;99.90;;;;;;5034934;28;20895;-66
2022/09/11 06:16:08;;;;;;;0.40;0.40;;;14.80;99.90;;;;;;5034269;28;20575;-66
2022/09/11 06:18:56;;;;;;;0.40;0.40;;;14.80;99.90;;;;;;5035006;28;20421;-66
2022/09/11 06:21:44;;;;;;;0.60;0.60;;;14.90;99.90;;;;;;5034306;28;20421;-69
2022/09/11 06:24:32;;;;;;;7.13;6.20;;;14.90;99.90;;;;;;5034168;28;20417;-66
2022/09/11 06:27:20;;;;;;;1.30;1.20;;;14.90;99.90;;;;;;5034168;28;20421;-69
2022/09/11 06:30:10;;;;;;;0.40;0.40;;;14.80;99.90;;;;;;5034116;28;20797;-66
2022/09/11 06:32:59;;;;;;;0.40;0.40;;;14.90;99.90;;;;;;5034791;28;20449;-68
2022/09/11 06:35:57;;;;;;;3.23;3.07;;;15.00;99.90;;;;;;5034460;28;20479;-72
2022/09/11 06:38:46;;;;;;;0.40;0.40;;;15.00;99.90;;;;;;5035174;28;20421;-68
2022/09/11 06:41:34;;;;;;;0.77;0.77;;;15.10;99.90;;;;;;5033494;28;20440;-68
2022/09/11 06:44:22;;;;;;;0.70;0.70;;;15.10;99.90;;;;;;5033945;28;20539;-70
2022/09/11 06:47:12;;;;;;;0.40;0.40;;;15.20;99.90;;;;;;5034869;28;21094;-68
2022/09/11 06:50:01;;;;;;;0.50;0.50;;;15.20;99.90;;;;;;5033587;28;20433;-68
2022/09/11 06:52:50;;;;;;;1.33;1.33;;;15.40;99.90;;;;;;5033507;28;20602;-70
2022/09/11 06:55:39;;;;;;;0.40;0.40;;;15.30;99.90;;;;;;5033675;28;20314;-68
2022/09/11 06:58:27;;;;;;;0.40;0.40;;;15.50;99.90;;;;;;5033660;28;20429;-71
2022/09/11 07:01:18;;;;;;;2.50;2.40;;;15.50;99.90;;;;;;5032885;28;20289;-71
2022/09/11 07:04:06;;;;;;;0.40;0.40;;;15.60;99.90;;;;;;5033618;28;20234;-71
2022/09/11 07:06:55;;;;;;;0.60;0.60;;;15.60;99.90;;;;;;5033210;28;20904;-68
2022/09/11 07:09:43;;;;;;;0.40;0.40;;;15.60;99.90;;;;;;5032413;28;20429;-70
2022/09/11 07:12:31;;;;;;;0.40;0.40;;;15.60;99.90;;;;;;5032873;28;20593;-70
2022/09/11 07:15:19;;;;;;;0.40;0.40;;;15.70;99.90;;;;;;5031890;28;20982;-70
2022/09/11 07:18:08;;;;;;;1.33;1.00;;;15.90;99.90;;;;;;5032687;28;20194;-67
2022/09/11 07:20:56;;;;;;;0.40;0.40;;;16.10;99.90;;;;;;5033528;28;20566;-70
2022/09/11 07:23:49;;;;;;;0.40;0.40;;;16.20;99.90;;;;;;5032815;28;20293;-69
2022/09/11 07:26:37;;;;;;;0.40;0.40;;;16.30;99.90;;;;;;5032901;28;20431;-69
2022/09/11 07:29:25;;;;;;;0.40;0.40;;;16.60;99.90;;;;;;5032545;28;20216;-70
2022/09/11 07:32:13;;;;;;;0.40;0.40;;;16.60;99.90;;;;;;5032293;28;20417;-69
2022/09/11 07:35:02;;;;;;;0.60;0.60;;;16.70;99.90;;;;;;5032386;28;20587;-69
2022/09/11 07:37:50;;;;;;;0.40;0.40;;;16.80;99.90;;;;;;5033589;28;20595;-72
2022/09/11 07:40:40;;;;;;;0.40;0.40;;;16.90;99.90;;;;;;5031879;28;20685;-71
2022/09/11 07:43:30;;;;;;;0.40;0.40;;;16.90;99.90;;;;;;5032234;28;20224;-71
2022/09/11 07:46:18;;;;;;;0.40;0.40;;;17.10;99.90;;;;;;5032213;28;20358;-70
2022/09/11 07:49:08;;;;;;;0.50;0.50;;;17.20;99.90;;;;;;5032176;28;20205;-68
2022/09/11 07:51:58;;;;;;;0.40;0.40;;;17.30;99.90;;;;;;5032164;28;20198;-67
2022/09/11 07:54:46;;;;;;;0.40;0.40;;;17.20;99.90;;;;;;5032788;28;20233;-71
2022/09/11 07:57:35;;;;;;;2.97;2.73;;;17.10;99.90;;;;;;5032064;28;20332;-70
2022/09/11 08:00:23;;;;;;;1.25;1.15;;;17.00;99.90;;;;;;5032967;28;20205;-70
2022/09/11 08:03:11;;;;;;;0.40;0.40;;;16.70;99.90;;;;;;5032268;28;20719;-68
2022/09/11 08:06:00;;;;;;;1.43;1.43;;;16.80;99.90;;;;;;5032458;28;20202;-69
2022/09/11 08:08:52;;;;;;;0.50;0.50;;;16.90;99.90;;;;;;5032116;28;20202;-68
2022/09/11 08:11:42;;;;;;;1.25;0.93;;;17.00;99.90;;;;;;5032987;28;20558;-68
2022/09/11 08:14:31;;;;;;;0.40;0.40;;;17.10;99.90;;;;;;5032257;28;20729;-70
2022/09/11 08:17:19;;;;;;;2.00;0.73;;;17.10;99.90;;;;;;5033025;28;20372;-68
2022/09/11 08:20:08;;;;;;;0.85;0.85;;;17.40;99.90;;;;;;5032385;28;20198;-68
2022/09/11 08:22:57;;;;;;;0.40;0.40;;;17.50;99.90;;;;;;5032645;28;20217;-67
2022/09/11 08:25:45;;;;;;;0.55;0.55;;;17.90;99.90;;;;;;5031935;28;20579;-69
2022/09/11 08:28:35;;;;;;;0.40;0.40;;;18.30;99.90;;;;;;5031400;28;20295;-70
2022/09/11 08:31:26;;;;;;;1.42;0.68;;;18.50;99.90;;;;;;5031249;28;20203;-68
2022/09/11 08:34:15;;;;;;;5.07;2.78;;;18.60;99.90;;;;;;5031915;28;20300;-68
2022/09/11 08:37:03;;;;;;;0.40;0.40;;;18.60;99.90;;;;;;5031165;28;20232;-71
2022/09/11 08:39:51;;;;;;;1.75;1.63;;;18.40;99.90;;;;;;5031060;28;20296;-69
2022/09/11 08:42:41;;;;;;;0.55;0.50;;;18.40;99.90;;;;;;5032315;28;20226;-70
2022/09/11 08:45:34;;;;;;;0.52;0.52;;;18.10;99.90;;;;;;5032742;28;20310;-69
2022/09/11 08:48:31;;;;;;;0.40;0.40;;;17.90;99.90;;;;;;5031785;28;20205;-70
2022/09/11 08:51:20;;;;;;;0.43;0.43;;;17.70;99.90;;;;;;5032063;28;20619;-68
2022/09/11 08:54:19;;;;;;;1.27;1.20;;;17.70;99.90;;;;;;5032440;28;20587;-67
2022/09/11 08:57:17;;;;;;;1.38;1.27;;;17.90;99.90;;;;;;5031604;28;20265;-69
2022/09/11 09:00:14;;;;;;;1.13;1.02;;;18.20;99.90;;;;;;5030956;28;20206;-68
2022/09/11 09:03:23;;;;;;;0.80;0.80;;;18.40;99.90;;;;;;5031764;28;20371;-70
2022/09/11 09:06:30;;;;;;;1.38;0.75;;;18.30;99.90;;;;;;5030941;28;20701;-69
2022/09/11 09:09:26;;;;;;;0.40;0.40;;;18.50;99.90;;;;;;5031310;28;20767;-71
2022/09/11 09:12:31;;;;;;;0.47;0.47;;;18.90;99.90;;;;;;5030613;28;20213;-68
2022/09/11 09:15:33;;;;;;;0.40;0.40;;;19.00;99.90;;;;;;5030821;28;20280;-68
2022/09/11 09:18:29;;;;;;;1.00;1.00;;;18.90;99.90;;;;;;5030754;28;20304;-70
2022/09/11 09:21:24;;;;;;;1.38;0.82;;;18.90;99.90;;;;;;5030747;28;20586;-68
2022/09/11 09:24:18;;;;;;;0.70;0.70;;;18.70;99.90;;;;;;5031419;28;20226;-68
2022/09/11 09:27:08;;;;;;;1.58;1.48;;;18.70;99.90;;;;;;5030952;28;20198;-69
2022/09/11 09:30:02;;;;;;;0.50;0.50;;;18.80;99.90;;;;;;5031007;28;20209;-69
2022/09/11 09:32:55;;;;;;;1.52;1.15;;;19.00;99.90;;;;;;5031661;28;20576;-67
2022/09/11 09:35:45;;;;;;;1.33;1.23;;;19.30;99.90;;;;;;5030654;28;20230;-69
2022/09/11 09:38:34;;;;;;;0.40;0.40;;;19.30;99.90;;;;;;5033129;28;20280;-69
2022/09/11 09:41:53;;;;;;;0.60;0.60;;;19.20;99.90;;;;;;5034297;28;20202;-70
2022/09/11 09:44:53;;;;;;;1.30;0.60;;;19.10;99.90;;;;;;5034524;28;20212;-68
2022/09/11 09:47:44;;;;;;;1.20;1.08;;;19.00;99.90;;;;;;5034543;28;20344;-68
2022/09/11 09:50:35;;;;;;;0.65;0.63;;;19.20;99.90;;;;;;5035371;28;20228;-68
2022/09/11 09:53:29;;;;;;;4.85;2.38;;;19.30;99.90;;;;;;5034311;28;20214;-67
2022/09/11 09:56:19;;;;;;;0.40;0.40;;;19.50;99.90;;;;;;5035486;28;20222;-69
2022/09/11 09:59:14;;;;;;;0.47;0.47;;;19.60;99.90;;;;;;5033565;28;20281;-69
2022/09/11 10:02:03;;;;;;;0.40;0.40;;;19.50;99.90;;;;;;5035260;28;20324;-68
2022/09/11 10:05:07;;;;;;;0.40;0.40;;;19.50;99.90;;;;;;5035651;28;20293;-67
2022/09/11 10:07:57;;;;;;;4.05;2.88;;;19.50;99.90;;;;;;5033953;28;20583;-67
2022/09/11 10:10:56;;;;;;;1.13;1.05;;;19.80;99.90;;;;;;5034958;28;20237;-70
2022/09/11 10:13:54;;;;;;;2.72;1.73;;;20.00;99.90;;;;;;5035488;28;20304;-67
2022/09/11 10:16:48;;;;;;;3.05;2.25;;;20.10;99.90;;;;;;5044645;28;20591;-68
2022/09/11 10:19:39;;;;;;;0.52;0.52;;;19.70;99.90;;;;;;5040737;28;20208;-69
2022/09/11 10:22:31;;;;;;;1.08;0.98;;;19.60;99.90;;;;;;5038963;28;20227;-71
2022/09/11 10:25:21;;;;;;;0.57;0.57;;;19.30;99.90;;;;;;5038180;28;20693;-68
2022/09/11 10:28:13;;;;;;;4.55;4.13;;;18.80;99.90;;;;;;5036706;28;20194;-68
2022/09/11 10:31:04;;;;;;;0.70;0.70;;;18.90;99.90;;;;;;5038017;28;20206;-69
2022/09/11 10:33:55;;;;;;;0.77;0.77;;;19.50;99.90;;;;;;5042325;28;20253;-67
2022/09/11 10:36:52;;;;;;;1.45;1.20;;;20.00;99.90;;;;;;5038935;28;20296;-67
2022/09/11 10:39:42;;;;;;;1.60;1.50;;;20.50;99.90;;;;;;5036279;28;20204;-66
2022/09/11 10:42:33;;;;;;;0.88;0.88;;;20.70;99.90;;;;;;5036086;28;20226;-67
2022/09/11 10:45:23;;;;;;;0.60;0.60;;;20.60;99.90;;;;;;5038132;28;20233;-68
2022/09/11 10:48:22;;;;;;;0.40;0.40;;;20.40;99.90;;;;;;5036062;28;20205;-68
2022/09/11 10:51:12;;;;;;;1.40;1.00;;;20.30;99.90;;;;;;5033720;28;20675;-69
2022/09/11 10:54:12;;;;;;;0.40;0.40;;;20.40;99.90;;;;;;5035158;28;20217;-66
2022/09/11 10:57:07;;;;;;;0.40;0.40;;;20.50;99.90;;;;;;5033748;28;20218;-67
2022/09/11 11:00:02;;;;;;;4.72;1.50;;;20.40;99.90;;;;;;5034506;28;20213;-69
2022/09/11 11:02:52;;;;;;;0.60;0.60;;;20.50;99.90;;;;;;5033098;28;20372;-67
2022/09/11 11:05:50;;;;;;;0.60;0.47;;;20.20;99.90;;;;;;5034285;28;20198;-71
2022/09/11 11:09:05;;;;;;;0.52;0.47;;;20.00;99.90;;;;;;5033098;28;20582;-71
2022/09/11 11:12:05;;;;;;;0.85;0.77;;;19.70;99.90;;;;;;5015544;28;20212;-68
2022/09/11 11:15:12;;;;;;;1.05;0.70;;;19.50;99.90;;;;;;5032870;28;20230;-68
2022/09/11 11:18:20;;;;;;;0.50;0.50;;;19.20;99.90;;;;;;5033055;28;20222;-68
2022/09/11 11:21:22;;;;;;;0.65;0.65;;;19.60;99.90;;;;;;5032430;28;20197;-69
2022/09/11 11:24:24;;;;;;;4.85;1.95;;;19.60;99.90;;;;;;5032889;28;20221;-71
2022/09/11 11:27:54;;;;;;;0.40;0.40;;;19.60;99.90;;;;;;5032731;28;20242;-72
2022/09/11 11:30:51;;;;;;;0.80;0.80;;;19.80;99.90;;;;;;5032314;28;20205;-70
2022/09/11 11:34:00;;;;;;;2.30;1.98;;;20.20;99.90;;;;;;5033757;28;20221;-68
2022/09/11 11:36:53;;;;;;;0.95;0.90;;;20.50;99.90;;;;;;5032854;28;20198;-68
2022/09/11 11:39:48;;;;;;;0.75;0.75;;;20.80;99.90;;;;;;5033591;28;20214;-66
2022/09/11 11:42:41;;;;;;;0.40;0.40;;;20.90;99.90;;;;;;5033450;28;20221;-69
2022/09/11 11:45:33;;;;;;;0.40;0.40;;;20.90;99.90;;;;;;5033056;28;20204;-69
2022/09/11 11:48:28;;;;;;;0.75;0.75;;;20.80;99.90;;;;;;5033805;28;20225;-67
2022/09/11 11:51:18;;;;;;;3.13;1.88;;;21.00;99.90;;;;;;5034456;28;20224;-66
2022/09/11 11:54:16;;;;;;;0.88;0.82;;;21.10;99.90;;;;;;5033502;28;20723;-67
2022/09/11 11:57:12;;;;;;;0.40;0.40;;;21.00;99.90;;;;;;5032961;28;20308;-67
2022/09/11 12:00:07;;;;;;;0.60;0.60;;;21.00;99.90;;;;;;5034599;28;20202;-67
2022/09/11 12:03:00;;;;;;;1.75;1.17;;;20.70;99.90;;;;;;5032931;28;20229;-68
2022/09/11 12:05:48;;;;;;;0.40;0.40;;;20.50;99.90;;;;;;5032342;28;20198;-69
2022/09/11 12:08:43;;;;;;;1.52;1.42;;;20.20;99.90;;;;;;5032557;28;20213;-69
2022/09/11 12:11:33;;;;;;;0.40;0.40;;;20.50;99.90;;;;;;5032705;28;20675;-68
2022/09/11 12:14:27;;;;;;;0.40;0.40;;;20.70;99.90;;;;;;5033630;28;20232;-66
2022/09/11 12:17:24;;;;;;;0.40;0.40;;;21.00;99.90;;;;;;5034397;28;20300;-66
2022/09/11 12:20:31;;;;;;;0.55;0.45;;;21.50;99.90;;;;;;5033465;28;20284;-67
2022/09/11 12:23:34;;;;;;;0.40;0.40;;;21.80;99.90;;;;;;5034100;28;20226;-66
2022/09/11 12:26:23;;;;;;;0.60;0.60;;;22.20;99.90;;;;;;5034941;28;20202;-67
2022/09/11 12:29:48;;;;;;;0.40;0.40;;;22.90;99.90;;;;;;5034106;28;20665;-67
2022/09/11 12:32:46;;;;;;;0.60;0.60;;;23.00;99.90;;;;;;5034583;28;20226;-67
2022/09/11 12:35:42;;;;;;;0.50;0.50;;;22.90;99.90;;;;;;5034430;28;20214;-66
2022/09/11 12:38:38;;;;;;;1.10;0.65;;;22.50;99.90;;;;;;5033266;28;20221;-67
2022/09/11 12:41:29;;;;;;;0.40;0.40;;;22.20;99.90;;;;;;5034943;28;20233;-68
2022/09/11 12:44:32;;;;;;;0.40;0.40;;;22.20;99.90;;;;;;5034045;28;20214;-67
2022/09/11 12:47:22;;;;;;;0.40;0.40;;;22.00;99.90;;;;;;5034348;28;20201;-67
2022/09/11 12:50:19;;;;;;;0.73;0.70;;;21.90;99.90;;;;;;5033647;28;20209;-67
2022/09/11 12:53:16;;;;;;;0.40;0.40;;;22.10;99.90;;;;;;5033588;28;20313;-68
2022/09/11 12:56:07;;;;;;;0.40;0.40;;;22.40;99.90;;;;;;5034075;28;20276;-67
2022/09/11 12:58:58;;;;;;;0.40;0.40;;;22.50;99.90;;;;;;5032804;28;20305;-67
2022/09/11 13:01:46;;;;;;;0.40;0.40;;;22.40;99.90;;;;;;5033201;28;20202;-67
2022/09/11 13:04:35;;;;;;;0.40;0.40;;;22.00;99.90;;;;;;5032884;28;20206;-67
2022/09/11 13:07:33;;;;;;;0.40;0.40;;;21.60;99.90;;;;;;5032926;28;20198;-67
2022/09/11 13:10:32;;;;;;;0.40;0.40;;;21.40;99.90;;;;;;5032906;28;20251;-65
2022/09/11 13:13:43;;;;;;;0.40;0.40;;;21.10;99.90;;;;;;5032385;28;20213;-67
2022/09/11 13:16:34;;;;;;;0.40;0.40;;;20.90;99.90;;;;;;5033086;28;20225;-68
2022/09/11 13:19:22;;;;;;;0.40;0.40;;;20.70;99.90;;;;;;5032796;28;20710;-67
2022/09/11 13:22:21;;;;;;;0.40;0.40;;;20.50;99.90;;;;;;5032530;28;20618;-67
2022/09/11 13:25:14;;;;;;;0.40;0.40;;;20.40;99.90;;;;;;5032821;28;20206;-66
2022/09/11 13:28:05;;;;;;;0.40;0.40;;;20.40;99.90;;;;;;5032370;28;20256;-67
2022/09/11 13:30:56;;;;;;;0.40;0.40;;;20.40;99.90;;;;;;5031907;28;20272;-67
2022/09/11 13:33:49;;;;;;;0.40;0.40;;;20.30;99.90;;;;;;5031134;28;20221;-68
2022/09/11 13:36:38;;;;;;;0.40;0.40;;;20.00;99.90;;;;;;5030665;28;20208;-71
2022/09/11 13:39:27;;;;;;;0.40;0.40;;;19.70;99.90;;;;;;5030312;28;20304;-72
2022/09/11 13:42:24;;;;;;;0.88;0.88;;;19.20;99.90;;;;;;5030746;28;20202;-71
2022/09/11 13:45:17;;;;;;;0.40;0.40;;;19.20;99.90;;;;;;5030412;28;20288;-70
2022/09/11 13:48:18;;;;;;;0.60;0.55;;;18.90;99.90;;;;;;5030697;28;20196;-70
2022/09/11 13:51:11;;;;;;;0.40;0.40;;;18.70;99.90;;;;;;5030397;28;20204;-72
2022/09/11 13:54:07;;;;;;;0.70;0.70;;;18.50;99.90;;;;;;5031035;28;20236;-68
2022/09/11 13:57:18;;;;;;;0.40;0.40;;;18.50;99.90;;;;;;5030286;28;20205;-70
2022/09/11 14:00:37;;;;;;;0.40;0.40;;;18.50;99.90;;;;;;5029815;28;20221;-71
2022/09/11 14:03:27;;;;;;;0.40;0.40;;;18.60;99.90;;;;;;5030840;28;20236;-68
2022/09/11 14:06:17;;;;;;;0.40;0.40;;;18.80;99.90;;;;;;5030760;28;20206;-69
2022/09/11 14:09:05;;;;;;;0.40;0.40;;;18.80;99.90;;;;;;5030715;28;20198;-67
2022/09/11 14:11:53;;;;;;;0.40;0.40;;;19.00;99.90;;;;;;5030913;28;20209;-70
2022/09/11 14:14:45;;;;;;;0.40;0.40;;;18.80;99.90;;;;;;5031393;28;20212;-68
2022/09/11 14:17:33;;;;;;;0.45;0.45;;;18.60;99.90;;;;;;5031283;28;20726;-67
2022/09/11 14:20:23;;;;;;;0.60;0.60;;;18.40;99.90;;;;;;5030258;28;20198;-68
2022/09/11 14:23:19;;;;;;;0.40;0.40;;;18.10;99.90;;;;;;5030092;28;20222;-67
2022/09/11 14:26:14;;;;;;;0.40;0.40;;;17.70;99.90;;;;;;5034332;28;20202;-67
2022/09/11 14:29:05;;;;;;;0.50;0.50;;;17.50;99.90;;;;;;5034085;28;20277;-69
2022/09/11 14:32:15;;;;;;;0.60;0.60;;;17.50;99.90;;;;;;5034340;28;20202;-71
2022/09/11 14:35:05;;;;;;;0.50;0.50;;;17.60;99.90;;;;;;5034007;28;20202;-70
2022/09/11 14:37:53;;;;;;;0.40;0.40;;;17.80;99.90;;;;;;5034106;28;20205;-69
2022/09/11 14:40:48;;;;;;;0.40;0.40;;;18.00;99.90;;;;;;5034287;28;20281;-67
2022/09/11 14:43:38;;;;;;;0.40;0.40;;;18.20;99.90;;;;;;5033712;28;20695;-68
2022/09/11 14:46:26;;;;;;;0.40;0.40;;;18.50;99.90;;;;;;5034432;28;20202;-68
2022/09/11 14:49:15;;;;;;;0.40;0.40;;;18.70;99.90;;;;;;5033060;28;20586;-71
2022/09/11 14:52:04;;;;;;;0.40;0.40;;;18.90;99.90;;;;;;5033273;28;20281;-70
2022/09/11 14:54:52;;;;;;;0.40;0.40;;;19.00;99.90;;;;;;5033364;28;20210;-68
2022/09/11 14:57:41;;;;;;;0.40;0.40;;;19.40;99.90;;;;;;5033283;28;20206;-66
2022/09/11 15:00:30;;;;;;;0.40;0.40;;;19.60;99.90;;;;;;5033869;28;20348;-65